sensor_id;sensor_type;location;lat;lon;timestamp;temperature;humidity
20091;DHT22;10205;49.678;6.560;2022-12-10T00:01:23;7.00;67.50
20091;DHT22;10205;49.678;6.560;2022-12-10T00:03:51;7.00;67.10
20091;DHT22;10205;49.678;6.560;2022-12-10T00:06:20;7.00;66.60
20091;DHT22;10205;49.678;6.560;2022-12-10T00:08:49;7.00;66.50
20091;DHT22;10205;49.678;6.560;2022-12-10T00:11:17;7.00;66.50
20091;DHT22;10205;49.678;6.560;2022-12-10T00:13:47;7.00;66.60
20091;DHT22;10205;49.678;6.560;2022-12-10T00:16:16;7.00;66.60
20091;DHT22;10205;49.678;6.560;2022-12-10T00:18:47;6.90;66.60
20091;DHT22;10205;49.678;6.560;2022-12-10T00:21:17;6.90;66.30
20091;DHT22;10205;49.678;6.560;2022-12-10T00:23:46;6.90;66.20
20091;DHT22;10205;49.678;6.560;2022-12-10T00:26:16;6.90;66.20
20091;DHT22;10205;49.678;6.560;2022-12-10T00:28:46;6.80;66.50
20091;DHT22;10205;49.678;6.560;2022-12-10T00:31:15;6.80;66.50
20091;DHT22;10205;49.678;6.560;2022-12-10T00:33:44;6.80;66.40
20091;DHT22;10205;49.678;6.560;2022-12-10T00:36:22;6.80;67.10
20091;DHT22;10205;49.678;6.560;2022-12-10T00:38:51;6.70;66.10
20091;DHT22;10205;49.678;6.560;2022-12-10T00:41:19;6.70;66.30
20091;DHT22;10205;49.678;6.560;2022-12-10T00:43:47;6.70;66.30
20091;DHT22;10205;49.678;6.560;2022-12-10T00:46:18;6.70;66.20
20091;DHT22;10205;49.678;6.560;2022-12-10T00:48:46;6.70;66.10
20091;DHT22;10205;49.678;6.560;2022-12-10T00:51:17;6.70;65.90
20091;DHT22;10205;49.678;6.560;2022-12-10T00:53:47;6.60;65.80
20091;DHT22;10205;49.678;6.560;2022-12-10T00:56:18;6.60;66.10
20091;DHT22;10205;49.678;6.560;2022-12-10T00:58:48;6.60;66.20
20091;DHT22;10205;49.678;6.560;2022-12-10T01:01:19;6.60;65.90
20091;DHT22;10205;49.678;6.560;2022-12-10T01:03:49;6.50;66.00
20091;DHT22;10205;49.678;6.560;2022-12-10T01:06:21;6.50;66.00
20091;DHT22;10205;49.678;6.560;2022-12-10T01:08:52;6.50;66.20
20091;DHT22;10205;49.678;6.560;2022-12-10T01:11:21;6.50;66.30
20091;DHT22;10205;49.678;6.560;2022-12-10T01:13:51;6.50;66.30
20091;DHT22;10205;49.678;6.560;2022-12-10T01:16:20;6.50;66.30
20091;DHT22;10205;49.678;6.560;2022-12-10T01:18:48;6.50;66.30
20091;DHT22;10205;49.678;6.560;2022-12-10T01:21:17;6.50;66.20
20091;DHT22;10205;49.678;6.560;2022-12-10T01:23:48;6.50;66.10
20091;DHT22;10205;49.678;6.560;2022-12-10T01:26:18;6.40;66.00
20091;DHT22;10205;49.678;6.560;2022-12-10T01:28:47;6.50;66.40
20091;DHT22;10205;49.678;6.560;2022-12-10T01:31:17;6.40;66.00
20091;DHT22;10205;49.678;6.560;2022-12-10T01:33:45;6.40;66.00
20091;DHT22;10205;49.678;6.560;2022-12-10T01:36:15;6.40;66.30
20091;DHT22;10205;49.678;6.560;2022-12-10T01:38:45;6.50;66.50
20091;DHT22;10205;49.678;6.560;2022-12-10T01:41:15;6.40;66.00
20091;DHT22;10205;49.678;6.560;2022-12-10T01:43:55;6.40;65.60
20091;DHT22;10205;49.678;6.560;2022-12-10T01:46:27;6.40;65.30
20091;DHT22;10205;49.678;6.560;2022-12-10T01:48:56;6.40;66.00
20091;DHT22;10205;49.678;6.560;2022-12-10T01:51:28;6.40;66.00
20091;DHT22;10205;49.678;6.560;2022-12-10T01:53:59;6.40;66.00
20091;DHT22;10205;49.678;6.560;2022-12-10T01:56:28;6.40;66.10
20091;DHT22;10205;49.678;6.560;2022-12-10T01:58:57;6.40;66.00
20091;DHT22;10205;49.678;6.560;2022-12-10T02:01:28;6.40;66.20
20091;DHT22;10205;49.678;6.560;2022-12-10T02:04:08;6.40;66.40
20091;DHT22;10205;49.678;6.560;2022-12-10T02:06:50;6.40;66.00
20091;DHT22;10205;49.678;6.560;2022-12-10T02:09:29;6.40;66.00
20091;DHT22;10205;49.678;6.560;2022-12-10T02:12:09;6.40;66.40
20091;DHT22;10205;49.678;6.560;2022-12-10T02:14:49;6.40;66.50
20091;DHT22;10205;49.678;6.560;2022-12-10T02:17:25;6.40;66.40
20091;DHT22;10205;49.678;6.560;2022-12-10T02:20:00;6.40;66.80
20091;DHT22;10205;49.678;6.560;2022-12-10T02:22:34;6.40;66.10
20091;DHT22;10205;49.678;6.560;2022-12-10T02:25:07;6.40;65.90
20091;DHT22;10205;49.678;6.560;2022-12-10T02:27:42;6.40;66.00
20091;DHT22;10205;49.678;6.560;2022-12-10T02:30:15;6.40;65.90
20091;DHT22;10205;49.678;6.560;2022-12-10T02:32:44;6.40;66.10
20091;DHT22;10205;49.678;6.560;2022-12-10T02:35:19;6.40;66.10
20091;DHT22;10205;49.678;6.560;2022-12-10T02:37:51;6.40;65.90
20091;DHT22;10205;49.678;6.560;2022-12-10T02:40:26;6.40;66.10
20091;DHT22;10205;49.678;6.560;2022-12-10T02:42:57;6.40;65.50
20091;DHT22;10205;49.678;6.560;2022-12-10T02:45:28;6.40;65.90
20091;DHT22;10205;49.678;6.560;2022-12-10T02:48:00;6.40;66.10
20091;DHT22;10205;49.678;6.560;2022-12-10T02:50:30;6.40;65.80
20091;DHT22;10205;49.678;6.560;2022-12-10T02:52:57;6.40;65.90
20091;DHT22;10205;49.678;6.560;2022-12-10T02:55:24;6.30;65.70
20091;DHT22;10205;49.678;6.560;2022-12-10T02:58:13;6.30;65.80
20091;DHT22;10205;49.678;6.560;2022-12-10T03:00:53;6.30;66.10
20091;DHT22;10205;49.678;6.560;2022-12-10T03:03:32;6.30;66.00
20091;DHT22;10205;49.678;6.560;2022-12-10T03:06:11;6.30;66.50
20091;DHT22;10205;49.678;6.560;2022-12-10T03:08:48;6.40;66.30
20091;DHT22;10205;49.678;6.560;2022-12-10T03:11:20;6.30;66.30
20091;DHT22;10205;49.678;6.560;2022-12-10T03:13:54;6.40;66.70
20091;DHT22;10205;49.678;6.560;2022-12-10T03:16:31;6.40;65.90
20091;DHT22;10205;49.678;6.560;2022-12-10T03:19:05;6.40;66.10
20091;DHT22;10205;49.678;6.560;2022-12-10T03:21:39;6.30;66.20
20091;DHT22;10205;49.678;6.560;2022-12-10T03:24:08;6.30;66.50
20091;DHT22;10205;49.678;6.560;2022-12-10T03:26:38;6.40;66.70
20091;DHT22;10205;49.678;6.560;2022-12-10T03:29:10;6.40;66.40
20091;DHT22;10205;49.678;6.560;2022-12-10T03:31:43;6.30;66.00
20091;DHT22;10205;49.678;6.560;2022-12-10T03:34:11;6.30;65.90
20091;DHT22;10205;49.678;6.560;2022-12-10T03:36:40;6.30;65.60
20091;DHT22;10205;49.678;6.560;2022-12-10T03:39:09;6.30;65.70
20091;DHT22;10205;49.678;6.560;2022-12-10T03:41:38;6.30;65.90
20091;DHT22;10205;49.678;6.560;2022-12-10T03:44:05;6.30;65.80
20091;DHT22;10205;49.678;6.560;2022-12-10T03:46:32;6.30;66.50
20091;DHT22;10205;49.678;6.560;2022-12-10T03:49:02;6.30;65.40
20091;DHT22;10205;49.678;6.560;2022-12-10T03:51:30;6.20;65.80
20091;DHT22;10205;49.678;6.560;2022-12-10T03:53:57;6.20;66.00
20091;DHT22;10205;49.678;6.560;2022-12-10T03:56:24;6.20;65.90
20091;DHT22;10205;49.678;6.560;2022-12-10T03:58:51;6.20;65.10
20091;DHT22;10205;49.678;6.560;2022-12-10T04:01:19;6.20;65.10
20091;DHT22;10205;49.678;6.560;2022-12-10T04:03:46;6.20;65.30
20091;DHT22;10205;49.678;6.560;2022-12-10T04:06:16;6.10;65.10
20091;DHT22;10205;49.678;6.560;2022-12-10T04:08:45;6.10;64.90
20091;DHT22;10205;49.678;6.560;2022-12-10T04:11:14;6.10;65.40
20091;DHT22;10205;49.678;6.560;2022-12-10T04:13:42;6.10;65.40
20091;DHT22;10205;49.678;6.560;2022-12-10T04:16:28;6.00;65.00
20091;DHT22;10205;49.678;6.560;2022-12-10T04:18:57;6.00;65.60
20091;DHT22;10205;49.678;6.560;2022-12-10T04:21:29;6.00;66.00
20091;DHT22;10205;49.678;6.560;2022-12-10T04:24:15;6.00;66.10
20091;DHT22;10205;49.678;6.560;2022-12-10T04:27:04;6.00;66.00
20091;DHT22;10205;49.678;6.560;2022-12-10T04:29:34;6.00;65.60
20091;DHT22;10205;49.678;6.560;2022-12-10T04:32:02;6.00;65.80
20091;DHT22;10205;49.678;6.560;2022-12-10T04:34:29;6.00;66.30
20091;DHT22;10205;49.678;6.560;2022-12-10T04:36:59;6.00;66.10
20091;DHT22;10205;49.678;6.560;2022-12-10T04:39:26;6.00;65.80
20091;DHT22;10205;49.678;6.560;2022-12-10T04:41:54;6.00;65.80
20091;DHT22;10205;49.678;6.560;2022-12-10T04:44:21;6.00;66.20
20091;DHT22;10205;49.678;6.560;2022-12-10T04:46:49;6.00;65.80
20091;DHT22;10205;49.678;6.560;2022-12-10T04:49:16;6.00;65.00
20091;DHT22;10205;49.678;6.560;2022-12-10T04:51:44;6.00;65.60
20091;DHT22;10205;49.678;6.560;2022-12-10T04:54:13;6.00;65.30
20091;DHT22;10205;49.678;6.560;2022-12-10T04:56:41;5.90;65.40
20091;DHT22;10205;49.678;6.560;2022-12-10T04:59:09;5.90;65.80
20091;DHT22;10205;49.678;6.560;2022-12-10T05:01:36;5.90;65.80
20091;DHT22;10205;49.678;6.560;2022-12-10T05:04:05;5.90;65.80
20091;DHT22;10205;49.678;6.560;2022-12-10T05:06:35;5.90;65.70
20091;DHT22;10205;49.678;6.560;2022-12-10T05:09:03;5.90;65.40
20091;DHT22;10205;49.678;6.560;2022-12-10T05:11:33;5.90;66.30
20091;DHT22;10205;49.678;6.560;2022-12-10T05:14:00;5.80;65.50
20091;DHT22;10205;49.678;6.560;2022-12-10T05:16:30;5.80;65.30
20091;DHT22;10205;49.678;6.560;2022-12-10T05:18:59;5.80;65.90
20091;DHT22;10205;49.678;6.560;2022-12-10T05:21:28;5.80;65.90
20091;DHT22;10205;49.678;6.560;2022-12-10T05:24:17;5.80;65.80
20091;DHT22;10205;49.678;6.560;2022-12-10T05:26:45;5.80;66.00
20091;DHT22;10205;49.678;6.560;2022-12-10T05:29:16;5.80;66.10
20091;DHT22;10205;49.678;6.560;2022-12-10T05:31:44;5.80;65.90
20091;DHT22;10205;49.678;6.560;2022-12-10T05:34:11;5.80;65.80
20091;DHT22;10205;49.678;6.560;2022-12-10T05:36:38;5.80;65.90
20091;DHT22;10205;49.678;6.560;2022-12-10T05:39:06;5.80;66.10
20091;DHT22;10205;49.678;6.560;2022-12-10T05:41:36;5.80;66.10
20091;DHT22;10205;49.678;6.560;2022-12-10T05:44:09;5.80;66.60
20091;DHT22;10205;49.678;6.560;2022-12-10T05:46:36;5.80;66.40
20091;DHT22;10205;49.678;6.560;2022-12-10T05:49:06;5.80;66.80
20091;DHT22;10205;49.678;6.560;2022-12-10T05:51:35;5.80;67.00
20091;DHT22;10205;49.678;6.560;2022-12-10T05:54:04;5.80;66.90
20091;DHT22;10205;49.678;6.560;2022-12-10T05:56:32;5.90;66.90
20091;DHT22;10205;49.678;6.560;2022-12-10T05:59:01;5.90;67.00
20091;DHT22;10205;49.678;6.560;2022-12-10T06:01:32;5.90;67.00
20091;DHT22;10205;49.678;6.560;2022-12-10T06:04:02;5.90;66.70
20091;DHT22;10205;49.678;6.560;2022-12-10T06:06:34;5.90;66.80
20091;DHT22;10205;49.678;6.560;2022-12-10T06:09:04;6.00;67.00
20091;DHT22;10205;49.678;6.560;2022-12-10T06:11:32;6.00;66.90
20091;DHT22;10205;49.678;6.560;2022-12-10T06:14:00;6.00;67.50
20091;DHT22;10205;49.678;6.560;2022-12-10T06:16:28;6.00;66.80
20091;DHT22;10205;49.678;6.560;2022-12-10T06:18:57;6.00;66.50
20091;DHT22;10205;49.678;6.560;2022-12-10T06:21:24;6.00;66.40
20091;DHT22;10205;49.678;6.560;2022-12-10T06:23:52;6.00;66.90
20091;DHT22;10205;49.678;6.560;2022-12-10T06:26:21;6.00;67.10
20091;DHT22;10205;49.678;6.560;2022-12-10T06:28:51;6.00;66.60
20091;DHT22;10205;49.678;6.560;2022-12-10T06:31:19;6.00;66.30
20091;DHT22;10205;49.678;6.560;2022-12-10T06:33:49;6.00;66.50
20091;DHT22;10205;49.678;6.560;2022-12-10T06:36:18;6.00;66.50
20091;DHT22;10205;49.678;6.560;2022-12-10T06:38:45;6.00;65.90
20091;DHT22;10205;49.678;6.560;2022-12-10T06:41:16;6.00;65.40
20091;DHT22;10205;49.678;6.560;2022-12-10T06:43:45;6.00;65.50
20091;DHT22;10205;49.678;6.560;2022-12-10T06:46:16;6.00;66.10
20091;DHT22;10205;49.678;6.560;2022-12-10T06:48:45;6.00;66.50
20091;DHT22;10205;49.678;6.560;2022-12-10T06:51:14;6.00;66.10
20091;DHT22;10205;49.678;6.560;2022-12-10T06:53:43;6.00;65.90
20091;DHT22;10205;49.678;6.560;2022-12-10T06:56:12;5.90;65.80
20091;DHT22;10205;49.678;6.560;2022-12-10T06:58:41;5.90;65.30
20091;DHT22;10205;49.678;6.560;2022-12-10T07:01:10;5.90;65.40
20091;DHT22;10205;49.678;6.560;2022-12-10T07:03:40;5.90;64.90
20091;DHT22;10205;49.678;6.560;2022-12-10T07:06:09;5.90;64.80
20091;DHT22;10205;49.678;6.560;2022-12-10T07:08:38;5.80;64.60
20091;DHT22;10205;49.678;6.560;2022-12-10T07:11:06;5.80;64.40
20091;DHT22;10205;49.678;6.560;2022-12-10T07:13:34;5.80;64.80
20091;DHT22;10205;49.678;6.560;2022-12-10T07:16:02;5.80;64.80
20091;DHT22;10205;49.678;6.560;2022-12-10T07:18:37;5.80;65.30
20091;DHT22;10205;49.678;6.560;2022-12-10T07:21:13;5.80;64.80
20091;DHT22;10205;49.678;6.560;2022-12-10T07:23:42;5.80;65.20
20091;DHT22;10205;49.678;6.560;2022-12-10T07:26:09;5.70;65.00
20091;DHT22;10205;49.678;6.560;2022-12-10T07:28:37;5.70;65.00
20091;DHT22;10205;49.678;6.560;2022-12-10T07:31:06;5.70;65.20
20091;DHT22;10205;49.678;6.560;2022-12-10T07:33:35;5.70;65.50
20091;DHT22;10205;49.678;6.560;2022-12-10T07:36:04;5.70;65.50
20091;DHT22;10205;49.678;6.560;2022-12-10T07:38:32;5.70;65.70
20091;DHT22;10205;49.678;6.560;2022-12-10T07:41:03;5.70;65.90
20091;DHT22;10205;49.678;6.560;2022-12-10T07:43:33;5.70;65.90
20091;DHT22;10205;49.678;6.560;2022-12-10T07:46:03;5.70;65.70
20091;DHT22;10205;49.678;6.560;2022-12-10T07:48:31;5.70;65.30
20091;DHT22;10205;49.678;6.560;2022-12-10T07:51:00;5.70;65.70
20091;DHT22;10205;49.678;6.560;2022-12-10T07:53:27;5.70;66.00
20091;DHT22;10205;49.678;6.560;2022-12-10T07:55:54;5.70;66.10
20091;DHT22;10205;49.678;6.560;2022-12-10T07:58:23;5.70;65.60
20091;DHT22;10205;49.678;6.560;2022-12-10T08:00:50;5.70;65.50
20091;DHT22;10205;49.678;6.560;2022-12-10T08:03:18;5.70;65.50
20091;DHT22;10205;49.678;6.560;2022-12-10T08:05:45;5.70;64.90
20091;DHT22;10205;49.678;6.560;2022-12-10T08:08:12;5.70;64.90
20091;DHT22;10205;49.678;6.560;2022-12-10T08:10:40;5.60;64.50
20091;DHT22;10205;49.678;6.560;2022-12-10T08:13:07;5.60;65.00
20091;DHT22;10205;49.678;6.560;2022-12-10T08:15:36;5.60;64.20
20091;DHT22;10205;49.678;6.560;2022-12-10T08:18:03;5.60;64.30
20091;DHT22;10205;49.678;6.560;2022-12-10T08:20:30;5.60;64.40
20091;DHT22;10205;49.678;6.560;2022-12-10T08:22:57;5.60;64.40
20091;DHT22;10205;49.678;6.560;2022-12-10T08:25:24;5.50;64.70
20091;DHT22;10205;49.678;6.560;2022-12-10T08:27:51;5.50;64.60
20091;DHT22;10205;49.678;6.560;2022-12-10T08:30:18;5.50;63.20
20091;DHT22;10205;49.678;6.560;2022-12-10T08:32:47;5.50;64.40
20091;DHT22;10205;49.678;6.560;2022-12-10T08:35:17;5.50;64.90
20091;DHT22;10205;49.678;6.560;2022-12-10T08:37:44;5.50;65.00
20091;DHT22;10205;49.678;6.560;2022-12-10T08:40:12;5.50;64.60
20091;DHT22;10205;49.678;6.560;2022-12-10T08:42:39;5.50;64.00
20091;DHT22;10205;49.678;6.560;2022-12-10T08:45:07;5.50;64.40
20091;DHT22;10205;49.678;6.560;2022-12-10T08:47:35;5.50;64.90
20091;DHT22;10205;49.678;6.560;2022-12-10T08:50:04;5.50;65.20
20091;DHT22;10205;49.678;6.560;2022-12-10T08:52:31;5.50;65.30
20091;DHT22;10205;49.678;6.560;2022-12-10T08:54:58;5.50;65.00
20091;DHT22;10205;49.678;6.560;2022-12-10T08:57:25;5.50;65.00
20091;DHT22;10205;49.678;6.560;2022-12-10T08:59:53;5.50;63.80
20091;DHT22;10205;49.678;6.560;2022-12-10T09:02:20;5.50;63.40
20091;DHT22;10205;49.678;6.560;2022-12-10T09:04:47;5.50;64.10
20091;DHT22;10205;49.678;6.560;2022-12-10T09:07:16;5.40;63.80
20091;DHT22;10205;49.678;6.560;2022-12-10T09:09:43;5.40;63.30
20091;DHT22;10205;49.678;6.560;2022-12-10T09:12:11;5.40;63.90
20091;DHT22;10205;49.678;6.560;2022-12-10T09:14:38;5.50;64.40
20091;DHT22;10205;49.678;6.560;2022-12-10T09:17:06;5.40;64.50
20091;DHT22;10205;49.678;6.560;2022-12-10T09:19:33;5.40;64.60
20091;DHT22;10205;49.678;6.560;2022-12-10T09:22:00;5.50;64.80
20091;DHT22;10205;49.678;6.560;2022-12-10T09:24:29;5.50;64.50
20091;DHT22;10205;49.678;6.560;2022-12-10T09:26:56;5.50;64.40
20091;DHT22;10205;49.678;6.560;2022-12-10T09:29:24;5.50;64.30
20091;DHT22;10205;49.678;6.560;2022-12-10T09:31:51;5.50;64.30
20091;DHT22;10205;49.678;6.560;2022-12-10T09:34:19;5.50;64.10
20091;DHT22;10205;49.678;6.560;2022-12-10T09:36:46;5.50;63.90
20091;DHT22;10205;49.678;6.560;2022-12-10T09:39:14;5.50;64.20
20091;DHT22;10205;49.678;6.560;2022-12-10T09:42:03;5.50;64.40
20091;DHT22;10205;49.678;6.560;2022-12-10T09:44:50;5.50;64.30
20091;DHT22;10205;49.678;6.560;2022-12-10T09:47:33;5.50;64.50
20091;DHT22;10205;49.678;6.560;2022-12-10T09:50:10;5.60;64.40
20091;DHT22;10205;49.678;6.560;2022-12-10T09:52:46;5.60;63.90
20091;DHT22;10205;49.678;6.560;2022-12-10T09:55:16;5.60;64.10
20091;DHT22;10205;49.678;6.560;2022-12-10T09:57:49;5.60;64.00
20091;DHT22;10205;49.678;6.560;2022-12-10T10:00:22;5.50;64.00
20091;DHT22;10205;49.678;6.560;2022-12-10T10:02:55;5.50;63.90
20091;DHT22;10205;49.678;6.560;2022-12-10T10:05:27;5.50;64.60
20091;DHT22;10205;49.678;6.560;2022-12-10T10:07:59;5.50;63.40
20091;DHT22;10205;49.678;6.560;2022-12-10T10:10:30;5.50;63.70
20091;DHT22;10205;49.678;6.560;2022-12-10T10:13:01;5.50;63.80
20091;DHT22;10205;49.678;6.560;2022-12-10T10:15:43;5.50;63.80
20091;DHT22;10205;49.678;6.560;2022-12-10T10:18:15;5.50;63.60
20091;DHT22;10205;49.678;6.560;2022-12-10T10:20:49;5.60;64.40
20091;DHT22;10205;49.678;6.560;2022-12-10T10:23:16;5.60;64.80
20091;DHT22;10205;49.678;6.560;2022-12-10T10:25:45;5.60;65.00
20091;DHT22;10205;49.678;6.560;2022-12-10T10:28:18;5.60;64.70
20091;DHT22;10205;49.678;6.560;2022-12-10T10:30:48;5.60;65.00
20091;DHT22;10205;49.678;6.560;2022-12-10T10:33:18;5.70;65.30
20091;DHT22;10205;49.678;6.560;2022-12-10T10:35:47;5.70;65.10
20091;DHT22;10205;49.678;6.560;2022-12-10T10:38:22;5.70;65.10
20091;DHT22;10205;49.678;6.560;2022-12-10T10:40:52;5.80;65.00
20091;DHT22;10205;49.678;6.560;2022-12-10T10:43:25;5.80;64.80
20091;DHT22;10205;49.678;6.560;2022-12-10T10:45:56;5.90;64.30
20091;DHT22;10205;49.678;6.560;2022-12-10T10:48:28;5.90;64.30
20091;DHT22;10205;49.678;6.560;2022-12-10T10:51:04;5.90;64.50
20091;DHT22;10205;49.678;6.560;2022-12-10T10:53:40;5.90;64.10
20091;DHT22;10205;49.678;6.560;2022-12-10T10:56:10;6.00;62.40
20091;DHT22;10205;49.678;6.560;2022-12-10T10:58:59;6.00;63.10
20091;DHT22;10205;49.678;6.560;2022-12-10T11:01:45;6.00;62.90
20091;DHT22;10205;49.678;6.560;2022-12-10T11:04:15;6.00;63.30
20091;DHT22;10205;49.678;6.560;2022-12-10T11:06:50;6.10;64.00
20091;DHT22;10205;49.678;6.560;2022-12-10T11:09:26;6.10;64.40
20091;DHT22;10205;49.678;6.560;2022-12-10T11:11:59;6.10;64.60
20091;DHT22;10205;49.678;6.560;2022-12-10T11:14:32;6.20;64.50
20091;DHT22;10205;49.678;6.560;2022-12-10T11:17:18;6.20;64.10
20091;DHT22;10205;49.678;6.560;2022-12-10T11:19:55;6.20;64.60
20091;DHT22;10205;49.678;6.560;2022-12-10T11:22:26;6.20;63.90
20091;DHT22;10205;49.678;6.560;2022-12-10T11:24:55;6.30;63.80
20091;DHT22;10205;49.678;6.560;2022-12-10T11:27:33;6.30;63.10
20091;DHT22;10205;49.678;6.560;2022-12-10T11:30:11;6.30;63.30
20091;DHT22;10205;49.678;6.560;2022-12-10T11:32:56;6.30;64.00
20091;DHT22;10205;49.678;6.560;2022-12-10T11:35:42;6.40;63.60
20091;DHT22;10205;49.678;6.560;2022-12-10T11:38:22;6.40;63.70
20091;DHT22;10205;49.678;6.560;2022-12-10T11:41:01;6.40;63.50
20091;DHT22;10205;49.678;6.560;2022-12-10T11:44:09;6.40;62.90
20091;DHT22;10205;49.678;6.560;2022-12-10T11:47:08;6.40;63.50
20091;DHT22;10205;49.678;6.560;2022-12-10T11:49:57;6.40;62.30
20091;DHT22;10205;49.678;6.560;2022-12-10T11:52:39;6.50;63.60
20091;DHT22;10205;49.678;6.560;2022-12-10T11:55:26;6.50;63.80
20091;DHT22;10205;49.678;6.560;2022-12-10T11:58:11;6.50;64.00
20091;DHT22;10205;49.678;6.560;2022-12-10T12:01:01;6.50;63.00
20091;DHT22;10205;49.678;6.560;2022-12-10T12:03:48;6.50;61.70
20091;DHT22;10205;49.678;6.560;2022-12-10T12:06:44;6.50;62.40
20091;DHT22;10205;49.678;6.560;2022-12-10T12:09:30;6.50;62.90
20091;DHT22;10205;49.678;6.560;2022-12-10T12:12:16;6.60;61.30
20091;DHT22;10205;49.678;6.560;2022-12-10T12:14:58;6.60;61.90
20091;DHT22;10205;49.678;6.560;2022-12-10T12:17:31;6.50;61.70
20091;DHT22;10205;49.678;6.560;2022-12-10T12:20:05;6.50;62.00
20091;DHT22;10205;49.678;6.560;2022-12-10T12:22:46;6.50;61.90
20091;DHT22;10205;49.678;6.560;2022-12-10T12:25:20;6.50;61.90
20091;DHT22;10205;49.678;6.560;2022-12-10T12:27:52;6.50;62.60
20091;DHT22;10205;49.678;6.560;2022-12-10T12:30:24;6.50;62.30
20091;DHT22;10205;49.678;6.560;2022-12-10T12:32:55;6.50;62.30
20091;DHT22;10205;49.678;6.560;2022-12-10T12:35:35;6.40;62.10
20091;DHT22;10205;49.678;6.560;2022-12-10T12:38:18;6.40;62.00
20091;DHT22;10205;49.678;6.560;2022-12-10T12:40:57;6.40;61.90
20091;DHT22;10205;49.678;6.560;2022-12-10T12:43:39;6.40;59.80
20091;DHT22;10205;49.678;6.560;2022-12-10T12:46:18;6.40;62.30
20091;DHT22;10205;49.678;6.560;2022-12-10T12:48:52;6.40;61.60
20091;DHT22;10205;49.678;6.560;2022-12-10T12:51:29;6.30;59.60
20091;DHT22;10205;49.678;6.560;2022-12-10T12:54:01;6.30;61.80
20091;DHT22;10205;49.678;6.560;2022-12-10T12:56:42;6.30;62.10
20091;DHT22;10205;49.678;6.560;2022-12-10T12:59:33;6.30;62.50
20091;DHT22;10205;49.678;6.560;2022-12-10T13:02:20;6.40;62.60
20091;DHT22;10205;49.678;6.560;2022-12-10T13:04:57;6.40;62.40
20091;DHT22;10205;49.678;6.560;2022-12-10T13:07:32;6.40;62.40
20091;DHT22;10205;49.678;6.560;2022-12-10T13:10:18;6.50;62.70
20091;DHT22;10205;49.678;6.560;2022-12-10T13:12:52;6.50;62.10
20091;DHT22;10205;49.678;6.560;2022-12-10T13:15:35;6.50;62.20
20091;DHT22;10205;49.678;6.560;2022-12-10T13:18:25;6.50;62.10
20091;DHT22;10205;49.678;6.560;2022-12-10T13:21:32;6.50;61.30
20091;DHT22;10205;49.678;6.560;2022-12-10T13:24:09;6.40;61.70
20091;DHT22;10205;49.678;6.560;2022-12-10T13:26:41;6.50;61.50
20091;DHT22;10205;49.678;6.560;2022-12-10T13:29:44;6.50;61.70
20091;DHT22;10205;49.678;6.560;2022-12-10T13:32:19;6.40;61.10
20091;DHT22;10205;49.678;6.560;2022-12-10T13:35:29;6.40;61.70
20091;DHT22;10205;49.678;6.560;2022-12-10T13:38:04;6.50;62.40
20091;DHT22;10205;49.678;6.560;2022-12-10T13:40:39;6.40;62.00
20091;DHT22;10205;49.678;6.560;2022-12-10T13:43:28;6.50;61.60
20091;DHT22;10205;49.678;6.560;2022-12-10T13:46:25;6.50;61.80
20091;DHT22;10205;49.678;6.560;2022-12-10T13:48:57;6.40;61.50
20091;DHT22;10205;49.678;6.560;2022-12-10T13:51:51;6.40;61.50
20091;DHT22;10205;49.678;6.560;2022-12-10T13:58:13;6.40;60.90
20091;DHT22;10205;49.678;6.560;2022-12-10T14:00:56;6.40;61.30
20091;DHT22;10205;49.678;6.560;2022-12-10T14:03:57;6.40;61.20
20091;DHT22;10205;49.678;6.560;2022-12-10T14:06:37;6.40;60.90
20091;DHT22;10205;49.678;6.560;2022-12-10T14:09:11;6.40;61.10
20091;DHT22;10205;49.678;6.560;2022-12-10T14:11:47;6.30;61.60
20091;DHT22;10205;49.678;6.560;2022-12-10T14:14:23;6.30;62.00
20091;DHT22;10205;49.678;6.560;2022-12-10T14:16:53;6.30;60.90
20091;DHT22;10205;49.678;6.560;2022-12-10T14:19:21;6.30;60.80
20091;DHT22;10205;49.678;6.560;2022-12-10T14:21:55;6.30;61.30
20091;DHT22;10205;49.678;6.560;2022-12-10T14:24:28;6.30;61.20
20091;DHT22;10205;49.678;6.560;2022-12-10T14:26:59;6.30;61.10
20091;DHT22;10205;49.678;6.560;2022-12-10T14:29:28;6.30;61.30
20091;DHT22;10205;49.678;6.560;2022-12-10T14:31:56;6.30;61.30
20091;DHT22;10205;49.678;6.560;2022-12-10T14:34:27;6.30;61.10
20091;DHT22;10205;49.678;6.560;2022-12-10T14:36:57;6.30;60.90
20091;DHT22;10205;49.678;6.560;2022-12-10T14:39:32;6.30;61.10
20091;DHT22;10205;49.678;6.560;2022-12-10T14:42:02;6.30;61.10
20091;DHT22;10205;49.678;6.560;2022-12-10T14:44:32;6.30;61.10
20091;DHT22;10205;49.678;6.560;2022-12-10T14:47:11;6.30;61.10
20091;DHT22;10205;49.678;6.560;2022-12-10T14:49:41;6.20;61.30
20091;DHT22;10205;49.678;6.560;2022-12-10T14:52:14;6.20;61.10
20091;DHT22;10205;49.678;6.560;2022-12-10T14:54:43;6.20;61.00
20091;DHT22;10205;49.678;6.560;2022-12-10T14:57:16;6.20;61.30
20091;DHT22;10205;49.678;6.560;2022-12-10T14:59:47;6.20;61.80
20091;DHT22;10205;49.678;6.560;2022-12-10T15:02:24;6.20;62.30
20091;DHT22;10205;49.678;6.560;2022-12-10T15:04:55;6.20;62.60
20091;DHT22;10205;49.678;6.560;2022-12-10T15:07:26;6.20;62.50
20091;DHT22;10205;49.678;6.560;2022-12-10T15:10:02;6.20;62.80
20091;DHT22;10205;49.678;6.560;2022-12-10T15:12:37;6.20;63.10
20091;DHT22;10205;49.678;6.560;2022-12-10T15:15:14;6.20;63.30
20091;DHT22;10205;49.678;6.560;2022-12-10T15:17:52;6.20;63.40
20091;DHT22;10205;49.678;6.560;2022-12-10T15:20:24;6.20;63.50
20091;DHT22;10205;49.678;6.560;2022-12-10T15:22:54;6.20;63.60
20091;DHT22;10205;49.678;6.560;2022-12-10T15:25:27;6.20;63.20
20091;DHT22;10205;49.678;6.560;2022-12-10T15:27:58;6.30;63.20
20091;DHT22;10205;49.678;6.560;2022-12-10T15:30:36;6.30;63.30
20091;DHT22;10205;49.678;6.560;2022-12-10T15:33:20;6.20;63.60
20091;DHT22;10205;49.678;6.560;2022-12-10T15:35:54;6.20;62.80
20091;DHT22;10205;49.678;6.560;2022-12-10T15:38:24;6.20;63.20
20091;DHT22;10205;49.678;6.560;2022-12-10T15:40:57;6.20;63.50
20091;DHT22;10205;49.678;6.560;2022-12-10T15:43:27;6.20;63.70
20091;DHT22;10205;49.678;6.560;2022-12-10T15:45:56;6.20;63.70
20091;DHT22;10205;49.678;6.560;2022-12-10T15:48:26;6.20;63.80
20091;DHT22;10205;49.678;6.560;2022-12-10T15:50:56;6.20;63.80
20091;DHT22;10205;49.678;6.560;2022-12-10T15:53:28;6.20;64.80
20091;DHT22;10205;49.678;6.560;2022-12-10T15:56:01;6.20;64.10
20091;DHT22;10205;49.678;6.560;2022-12-10T15:58:29;6.20;64.10
20091;DHT22;10205;49.678;6.560;2022-12-10T16:00:56;6.20;64.20
20091;DHT22;10205;49.678;6.560;2022-12-10T16:03:24;6.20;64.20
20091;DHT22;10205;49.678;6.560;2022-12-10T16:05:54;6.10;64.20
20091;DHT22;10205;49.678;6.560;2022-12-10T16:08:23;6.10;64.20
20091;DHT22;10205;49.678;6.560;2022-12-10T16:10:55;6.10;64.20
20091;DHT22;10205;49.678;6.560;2022-12-10T16:13:28;6.10;64.10
20091;DHT22;10205;49.678;6.560;2022-12-10T16:16:00;6.10;64.20
20091;DHT22;10205;49.678;6.560;2022-12-10T16:18:31;6.10;63.40
20091;DHT22;10205;49.678;6.560;2022-12-10T16:21:01;6.10;63.50
20091;DHT22;10205;49.678;6.560;2022-12-10T16:23:29;6.00;63.80